Time;durP1;ratioP1;P1;durP2;ratioP2;P2;SDS_P1;SDS_P2;PMS_P1;PMS_P2;Temp;Humidity;BMP_temperature;BMP_pressure;BME280_temperature;BME280_humidity;BME280_pressure;Samples;Min_cycle;Max_cycle;Signal;HPM_P1;HPM_P2
2021/06/30 00:01:09;;;;;;;3.60;2.97;;;14.30;99.90;;;;;;5071492;28;20345;-78
2021/06/30 00:03:35;;;;;;;3.17;2.93;;;14.50;99.90;;;;;;5073282;28;20187;-78
2021/06/30 00:06:00;;;;;;;3.10;2.90;;;14.30;99.90;;;;;;5079467;28;20235;-78
2021/06/30 00:08:26;;;;;;;3.13;2.83;;;14.40;99.90;;;;;;5089936;28;20224;-78
2021/06/30 00:10:51;;;;;;;3.17;2.97;;;14.40;99.90;;;;;;5080549;28;20202;-78
2021/06/30 00:13:17;;;;;;;3.43;3.13;;;14.70;99.90;;;;;;5073009;28;20233;-78
2021/06/30 00:15:44;;;;;;;3.40;3.10;;;14.60;99.90;;;;;;5091244;28;20185;-78
2021/06/30 00:18:11;;;;;;;2.83;2.63;;;14.50;99.90;;;;;;5090291;28;20613;-78
2021/06/30 00:20:37;;;;;;;3.13;2.90;;;14.80;99.90;;;;;;5070712;28;20506;-78
2021/06/30 00:23:04;;;;;;;3.43;3.13;;;14.40;99.90;;;;;;5074937;28;21173;-78
2021/06/30 00:25:30;;;;;;;2.90;2.70;;;14.50;99.90;;;;;;5075448;28;20558;-78
2021/06/30 00:27:56;;;;;;;3.23;3.00;;;14.60;99.90;;;;;;5072108;28;20477;-78
2021/06/30 00:30:22;;;;;;;3.37;3.17;;;14.70;99.90;;;;;;5075007;28;20914;-76
2021/06/30 00:32:47;;;;;;;3.20;3.00;;;14.80;99.90;;;;;;5072609;28;20721;-77
2021/06/30 00:35:14;;;;;;;3.23;3.03;;;14.40;99.90;;;;;;5083460;28;20667;-77
2021/06/30 00:37:40;;;;;;;3.57;3.10;;;14.70;99.90;;;;;;5071450;28;20182;-77
2021/06/30 00:40:07;;;;;;;3.20;3.00;;;14.70;99.90;;;;;;5071615;28;20507;-77
2021/06/30 00:42:32;;;;;;;3.27;3.07;;;14.50;99.90;;;;;;5087350;28;20197;-77
2021/06/30 00:44:58;;;;;;;4.00;3.70;;;14.80;99.90;;;;;;5087869;28;20439;-77
2021/06/30 00:47:24;;;;;;;3.43;3.13;;;14.60;99.90;;;;;;5071416;28;20591;-77
2021/06/30 00:49:50;;;;;;;3.50;3.20;;;14.40;99.90;;;;;;5072835;28;20595;-77
2021/06/30 00:52:16;;;;;;;3.20;3.00;;;14.60;99.90;;;;;;5073612;28;20269;-77
2021/06/30 00:54:42;;;;;;;3.43;3.13;;;14.60;99.90;;;;;;5070811;28;20990;-77
2021/06/30 00:57:09;;;;;;;3.17;2.97;;;14.70;99.90;;;;;;5080596;28;20327;-77
2021/06/30 00:59:36;;;;;;;3.57;3.23;;;14.50;99.90;;;;;;5091412;28;20208;-77
2021/06/30 01:02:02;;;;;;;3.00;2.80;;;14.60;99.90;;;;;;5082057;28;20507;-77
2021/06/30 01:04:28;;;;;;;3.57;3.27;;;14.60;99.90;;;;;;5077794;28;20438;-77
2021/06/30 01:06:54;;;;;;;3.33;3.13;;;14.80;99.90;;;;;;5078953;28;20849;-77
2021/06/30 01:09:19;;;;;;;3.30;3.00;;;14.70;99.90;;;;;;5076239;28;20210;-77
2021/06/30 01:11:45;;;;;;;3.57;3.27;;;14.70;99.90;;;;;;5077587;28;20183;-76
2021/06/30 01:14:10;;;;;;;3.37;3.13;;;14.60;99.90;;;;;;5078228;28;20878;-77
2021/06/30 01:16:36;;;;;;;2.70;2.50;;;14.60;99.90;;;;;;5073146;28;20682;-77
2021/06/30 01:19:02;;;;;;;3.03;2.73;;;14.60;99.90;;;;;;5070905;28;20216;-77
2021/06/30 01:21:27;;;;;;;3.47;3.23;;;14.70;99.90;;;;;;5074855;28;20206;-76
2021/06/30 01:23:53;;;;;;;3.47;3.23;;;14.70;99.90;;;;;;5078394;28;20432;-76
2021/06/30 01:26:19;;;;;;;3.73;3.30;;;14.90;99.90;;;;;;5080017;28;20601;-76
2021/06/30 01:28:44;;;;;;;3.10;2.80;;;14.90;99.90;;;;;;5090473;28;20234;-76
2021/06/30 01:31:11;;;;;;;2.83;2.63;;;14.70;99.90;;;;;;5070663;28;20189;-75
2021/06/30 01:33:37;;;;;;;3.07;2.57;;;14.90;99.90;;;;;;5072142;28;20181;-76
2021/06/30 01:36:03;;;;;;;3.50;3.00;;;14.70;99.90;;;;;;5080950;28;20780;-76
2021/06/30 01:38:29;;;;;;;2.97;2.77;;;14.80;99.90;;;;;;5069734;28;20907;-75
2021/06/30 01:40:56;;;;;;;2.80;2.60;;;14.60;99.90;;;;;;5071680;28;20869;-75
2021/06/30 01:43:22;;;;;;;2.03;1.90;;;14.70;99.90;;;;;;5083634;28;20804;-76
2021/06/30 01:45:52;;;;;;;2.23;2.13;;;14.80;99.90;;;;;;5079765;28;20841;-76
2021/06/30 01:48:19;;;;;;;2.10;2.00;;;14.70;99.90;;;;;;5070764;28;20447;-75
2021/06/30 01:50:47;;;;;;;1.40;1.40;;;14.60;99.90;;;;;;5073176;28;20432;-75
2021/06/30 01:53:13;;;;;;;2.17;1.97;;;14.50;99.90;;;;;;5073368;28;20521;-75
2021/06/30 01:55:38;;;;;;;2.00;1.90;;;14.20;99.90;;;;;;5078039;28;20480;-75
2021/06/30 01:58:04;;;;;;;1.53;1.47;;;14.00;99.90;;;;;;5072201;28;20182;-75
2021/06/30 02:00:30;;;;;;;1.90;1.80;;;14.00;99.90;;;;;;5069693;28;20761;-75
2021/06/30 02:03:00;;;;;;;1.70;1.60;;;14.30;99.90;;;;;;5081014;28;20262;-75
2021/06/30 02:05:25;;;;;;;2.03;1.90;;;14.30;99.90;;;;;;5073246;28;20443;-75
2021/06/30 02:07:53;;;;;;;2.30;2.20;;;14.20;99.90;;;;;;5069015;28;20480;-75
2021/06/30 02:10:20;;;;;;;1.90;1.80;;;13.80;99.90;;;;;;5076671;28;20213;-75
2021/06/30 02:12:46;;;;;;;3.13;1.87;;;14.00;99.90;;;;;;5075533;28;20451;-75
2021/06/30 02:15:28;;;;;;;1.80;1.70;;;13.70;99.90;;;;;;5086096;28;20457;-75
2021/06/30 02:17:55;;;;;;;1.70;1.60;;;14.00;99.90;;;;;;5076100;28;20435;-75
2021/06/30 02:20:22;;;;;;;1.70;1.60;;;13.80;99.90;;;;;;5085043;28;21010;-75
2021/06/30 02:22:48;;;;;;;1.60;1.50;;;13.90;99.90;;;;;;5080294;28;20462;-75
2021/06/30 02:25:16;;;;;;;1.63;1.53;;;13.70;99.90;;;;;;5075684;28;20449;-75
2021/06/30 02:27:42;;;;;;;1.80;1.70;;;14.00;99.90;;;;;;5070266;28;20953;-75
2021/06/30 02:30:14;;;;;;;1.57;1.53;;;13.60;99.90;;;;;;5074832;28;20440;-75
2021/06/30 02:32:41;;;;;;;1.60;1.50;;;13.70;99.90;;;;;;5072237;28;20800;-75
2021/06/30 02:35:10;;;;;;;1.63;1.43;;;13.90;99.90;;;;;;5071306;28;20436;-75
2021/06/30 02:37:37;;;;;;;1.43;1.33;;;13.70;99.90;;;;;;5049015;28;20432;-75
2021/06/30 02:40:06;;;;;;;1.70;1.60;;;13.60;99.90;;;;;;5054294;28;20494;-75
2021/06/30 02:42:31;;;;;;;1.50;1.40;;;13.80;99.90;;;;;;5071133;28;20532;-75
2021/06/30 02:44:57;;;;;;;1.37;1.27;;;13.30;99.90;;;;;;5080472;28;20493;-75
2021/06/30 02:47:22;;;;;;;2.10;2.00;;;13.60;99.90;;;;;;5074390;28;20185;-75
2021/06/30 02:49:48;;;;;;;1.60;1.50;;;13.80;99.90;;;;;;5089324;28;20183;-76
2021/06/30 02:52:14;;;;;;;1.93;1.40;;;13.60;99.90;;;;;;5074953;28;20273;-76
2021/06/30 02:54:39;;;;;;;2.70;1.60;;;13.30;99.90;;;;;;5081138;28;20279;-75
2021/06/30 02:57:05;;;;;;;1.30;1.20;;;13.30;99.90;;;;;;5078482;28;20444;-75
2021/06/30 02:59:30;;;;;;;1.53;1.23;;;13.70;99.90;;;;;;5079478;28;20533;-76
2021/06/30 03:01:56;;;;;;;1.50;1.33;;;13.50;99.90;;;;;;5073585;28;20633;-75
2021/06/30 03:04:21;;;;;;;1.30;1.20;;;13.40;99.90;;;;;;5077525;28;20861;-75
2021/06/30 03:06:47;;;;;;;1.17;1.07;;;13.40;99.90;;;;;;5086388;28;20610;-75
2021/06/30 03:09:13;;;;;;;1.10;1.07;;;13.30;99.90;;;;;;5092878;28;20181;-75
2021/06/30 03:11:39;;;;;;;1.40;1.30;;;13.70;99.90;;;;;;5089170;28;20481;-75
2021/06/30 03:14:05;;;;;;;1.40;1.30;;;13.40;99.90;;;;;;5073958;28;20178;-75
2021/06/30 03:16:31;;;;;;;1.13;1.13;;;13.50;99.90;;;;;;5075669;28;20444;-75
2021/06/30 03:18:57;;;;;;;2.10;1.23;;;13.50;99.90;;;;;;5078388;28;20447;-75
2021/06/30 03:21:22;;;;;;;1.23;1.23;;;13.70;99.90;;;;;;5087726;28;20945;-75
2021/06/30 03:23:48;;;;;;;1.10;1.10;;;13.20;99.90;;;;;;5076243;28;20217;-75
2021/06/30 03:26:13;;;;;;;1.40;1.40;;;13.30;99.90;;;;;;5076611;28;20178;-76
2021/06/30 03:28:39;;;;;;;1.10;1.10;;;13.40;99.90;;;;;;5078846;28;20176;-76
2021/06/30 03:31:04;;;;;;;1.10;1.10;;;13.10;99.90;;;;;;5080867;28;20181;-75
2021/06/30 03:33:30;;;;;;;2.50;1.40;;;13.30;99.90;;;;;;5083095;28;20193;-76
2021/06/30 03:35:55;;;;;;;1.40;1.30;;;13.00;99.90;;;;;;5080006;28;20225;-75
2021/06/30 03:38:21;;;;;;;1.50;1.40;;;13.40;99.90;;;;;;5072851;28;20309;-75
2021/06/30 03:40:47;;;;;;;1.37;1.33;;;13.10;99.90;;;;;;5075944;28;20209;-75
2021/06/30 03:43:12;;;;;;;1.40;1.30;;;13.10;99.90;;;;;;5088286;28;20200;-75
2021/06/30 03:45:38;;;;;;;1.53;1.43;;;13.10;99.90;;;;;;5089065;28;20943;-76
2021/06/30 03:48:04;;;;;;;1.53;1.40;;;13.10;99.90;;;;;;5072593;28;20184;-76
2021/06/30 03:50:30;;;;;;;1.60;1.50;;;13.00;99.90;;;;;;5071431;28;20667;-75
2021/06/30 03:52:56;;;;;;;1.50;1.40;;;13.20;99.90;;;;;;5073175;28;20545;-75
2021/06/30 03:55:21;;;;;;;1.53;1.43;;;13.00;99.90;;;;;;5074806;28;20197;-75
2021/06/30 03:57:47;;;;;;;2.13;1.07;;;13.20;99.90;;;;;;5082900;28;20563;-75
2021/06/30 04:00:12;;;;;;;1.60;1.50;;;13.20;99.90;;;;;;5079491;28;20209;-75
2021/06/30 04:02:38;;;;;;;1.17;1.17;;;13.00;99.90;;;;;;5085115;28;20182;-75
2021/06/30 04:05:05;;;;;;;1.60;1.50;;;13.50;99.90;;;;;;5081126;28;20181;-75
2021/06/30 04:07:30;;;;;;;1.63;1.53;;;13.30;99.90;;;;;;5074047;28;20452;-75
2021/06/30 04:09:56;;;;;;;2.03;1.40;;;13.20;99.90;;;;;;5071387;28;20531;-74
2021/06/30 04:12:22;;;;;;;1.30;1.20;;;13.10;99.90;;;;;;5072435;28;20273;-75
2021/06/30 04:14:47;;;;;;;1.77;1.40;;;13.30;99.90;;;;;;5066708;28;20196;-75
2021/06/30 04:17:13;;;;;;;1.73;1.37;;;13.10;99.90;;;;;;5057613;28;20193;-75
2021/06/30 04:19:39;;;;;;;2.90;1.70;;;13.10;99.90;;;;;;5072001;28;20479;-75
2021/06/30 04:22:04;;;;;;;1.43;1.33;;;13.10;99.90;;;;;;5082302;28;20201;-76
2021/06/30 04:24:30;;;;;;;2.73;1.63;;;13.20;99.90;;;;;;5090873;28;20426;-75
2021/06/30 04:26:56;;;;;;;1.63;1.53;;;13.60;99.90;;;;;;5080058;28;20817;-76
2021/06/30 04:29:21;;;;;;;1.93;1.83;;;13.40;99.90;;;;;;5072986;28;20182;-76
2021/06/30 04:31:47;;;;;;;1.50;1.50;;;13.30;99.90;;;;;;5072109;28;20619;-76
2021/06/30 04:34:12;;;;;;;1.40;1.30;;;13.40;99.90;;;;;;5084883;28;20188;-76
2021/06/30 04:36:38;;;;;;;1.83;1.73;;;13.40;99.90;;;;;;5080845;28;20588;-76
2021/06/30 04:39:03;;;;;;;1.80;1.70;;;13.80;99.90;;;;;;5085839;28;20185;-76
2021/06/30 04:41:29;;;;;;;1.63;1.53;;;13.70;99.90;;;;;;5071252;28;20210;-76
2021/06/30 04:43:54;;;;;;;3.67;2.10;;;13.70;99.90;;;;;;5088360;28;20663;-76
2021/06/30 04:46:20;;;;;;;1.60;1.50;;;13.70;99.90;;;;;;5084030;28;20232;-76
2021/06/30 04:48:46;;;;;;;1.90;1.70;;;13.80;99.90;;;;;;5074885;28;20193;-76
2021/06/30 04:51:12;;;;;;;1.70;1.60;;;14.00;99.90;;;;;;5074699;28;20706;-77
2021/06/30 04:53:37;;;;;;;1.50;1.40;;;13.90;99.90;;;;;;5071333;28;20432;-76
2021/06/30 04:56:03;;;;;;;1.70;1.60;;;14.20;99.90;;;;;;5070609;28;20186;-76
2021/06/30 04:58:29;;;;;;;2.07;1.83;;;14.40;99.90;;;;;;5072157;28;20638;-76
2021/06/30 05:00:55;;;;;;;2.50;1.80;;;14.40;99.90;;;;;;5081616;28;20198;-76
2021/06/30 05:03:28;;;;;;;1.67;1.57;;;14.20;99.90;;;;;;5074702;28;20185;-77
2021/06/30 05:05:54;;;;;;;1.80;1.70;;;14.30;99.90;;;;;;5079114;28;20467;-77
2021/06/30 05:08:24;;;;;;;1.83;1.73;;;14.20;99.90;;;;;;5076307;28;20503;-75
2021/06/30 05:10:52;;;;;;;1.60;1.50;;;14.30;99.90;;;;;;5074383;28;20487;-76
2021/06/30 05:13:18;;;;;;;2.37;1.60;;;14.30;99.90;;;;;;5070061;28;20783;-76
2021/06/30 05:15:44;;;;;;;1.70;1.60;;;14.40;99.90;;;;;;5070941;28;20420;-75
2021/06/30 05:18:10;;;;;;;1.60;1.50;;;14.10;99.90;;;;;;5071822;28;20186;-76
2021/06/30 05:20:35;;;;;;;1.90;1.80;;;14.40;99.90;;;;;;5076957;28;20463;-76
2021/06/30 05:23:01;;;;;;;1.67;1.57;;;13.80;99.90;;;;;;5086622;28;20181;-76
2021/06/30 05:25:27;;;;;;;1.57;1.47;;;13.80;99.90;;;;;;5077635;28;20220;-75
2021/06/30 05:27:52;;;;;;;1.60;1.50;;;14.10;99.90;;;;;;5074567;28;20182;-76
2021/06/30 05:30:18;;;;;;;3.20;1.80;;;13.80;99.90;;;;;;5073390;28;20201;-75
2021/06/30 05:32:43;;;;;;;1.47;1.37;;;13.70;99.90;;;;;;5082202;28;20181;-75
2021/06/30 05:35:09;;;;;;;1.50;1.40;;;14.00;99.90;;;;;;5081468;28;20190;-75
2021/06/30 05:37:35;;;;;;;1.73;1.63;;;14.40;99.90;;;;;;5069717;28;20561;-76
2021/06/30 05:40:00;;;;;;;1.70;1.60;;;14.40;99.90;;;;;;5069973;28;20213;-76
2021/06/30 05:42:26;;;;;;;2.00;1.63;;;14.40;99.90;;;;;;5077277;28;20673;-75
2021/06/30 05:44:51;;;;;;;1.87;1.77;;;14.40;99.90;;;;;;5078208;28;20605;-76
2021/06/30 05:47:17;;;;;;;1.70;1.60;;;14.90;99.90;;;;;;5075832;28;20302;-76
2021/06/30 05:49:42;;;;;;;1.33;1.33;;;15.20;99.90;;;;;;5070596;28;20223;-76
2021/06/30 05:52:08;;;;;;;1.20;1.20;;;15.70;99.90;;;;;;5069767;28;20277;-76
2021/06/30 05:54:34;;;;;;;1.20;1.20;;;16.30;99.90;;;;;;5074919;28;20182;-76
2021/06/30 05:56:59;;;;;;;1.47;1.37;;;16.60;99.90;;;;;;5076298;28;20241;-75
2021/06/30 05:59:25;;;;;;;1.23;1.13;;;17.20;99.90;;;;;;5086183;28;20182;-83
2021/06/30 06:01:50;;;;;;;0.97;0.97;;;17.80;99.90;;;;;;5073167;28;20189;-75
2021/06/30 06:04:16;;;;;;;1.07;1.00;;;18.20;99.90;;;;;;5074384;28;20180;-76
2021/06/30 06:06:41;;;;;;;2.03;0.93;;;18.90;99.90;;;;;;5072394;28;20262;-76
2021/06/30 06:09:07;;;;;;;1.37;1.07;;;19.60;99.50;;;;;;5068913;28;20183;-75
2021/06/30 06:11:32;;;;;;;1.37;1.00;;;20.60;96.90;;;;;;5074338;28;20190;-76
2021/06/30 06:13:58;;;;;;;1.10;1.10;;;21.10;96.00;;;;;;5077371;28;20190;-75
2021/06/30 06:16:23;;;;;;;1.07;1.07;;;21.90;90.90;;;;;;5071347;28;20185;-76
2021/06/30 06:18:49;;;;;;;1.20;1.17;;;21.90;79.00;;;;;;5066422;28;20184;-76
2021/06/30 06:21:15;;;;;;;1.03;1.03;;;21.70;78.30;;;;;;5069964;28;20204;-75
2021/06/30 06:23:41;;;;;;;1.47;0.97;;;21.10;80.00;;;;;;5072852;28;20420;-75
2021/06/30 06:26:08;;;;;;;1.23;1.13;;;20.90;79.90;;;;;;5072169;28;20482;-75
2021/06/30 06:28:34;;;;;;;0.80;0.80;;;20.10;84.10;;;;;;5068254;28;20185;-77
2021/06/30 06:31:02;;;;;;;1.20;1.20;;;19.50;88.40;;;;;;5072627;28;20524;-77
2021/06/30 06:33:27;;;;;;;1.60;1.50;;;19.30;91.60;;;;;;5068864;28;20546;-78
2021/06/30 06:35:53;;;;;;;1.27;1.27;;;19.00;93.10;;;;;;5067240;28;20521;-78
2021/06/30 06:38:19;;;;;;;1.17;1.07;;;18.60;92.90;;;;;;5067356;28;20266;-76
2021/06/30 06:40:45;;;;;;;1.77;1.40;;;18.20;95.10;;;;;;5067441;28;20223;-77
2021/06/30 06:43:10;;;;;;;1.17;1.10;;;17.80;96.70;;;;;;5071188;28;20438;-77
2021/06/30 06:45:36;;;;;;;1.10;1.10;;;17.50;99.50;;;;;;5081572;28;20376;-77
2021/06/30 06:48:02;;;;;;;1.17;1.07;;;17.70;99.90;;;;;;5073808;28;20178;-77
2021/06/30 06:50:28;;;;;;;2.40;1.10;;;18.20;99.90;;;;;;5073797;28;20191;-81
2021/06/30 06:52:54;;;;;;;0.80;0.80;;;18.80;99.40;;;;;;5073543;28;20447;-77
2021/06/30 06:55:20;;;;;;;1.10;1.10;;;19.30;98.00;;;;;;5080308;28;20438;-77
2021/06/30 06:57:46;;;;;;;1.33;1.00;;;19.60;97.00;;;;;;5071449;28;20677;-76
2021/06/30 07:00:12;;;;;;;1.40;1.30;;;19.20;95.80;;;;;;5070061;28;20500;-76
2021/06/30 07:02:37;;;;;;;3.07;1.10;;;19.20;95.90;;;;;;5073189;28;20601;-76
2021/06/30 07:05:04;;;;;;;1.33;1.23;;;19.10;96.90;;;;;;5067450;28;20470;-76
2021/06/30 07:07:30;;;;;;;0.87;0.87;;;19.00;97.40;;;;;;5068816;28;20353;-76
2021/06/30 07:09:56;;;;;;;1.13;1.13;;;19.40;99.20;;;;;;5070566;28;20502;-76
2021/06/30 07:12:22;;;;;;;0.90;0.90;;;20.00;92.10;;;;;;5069003;28;20204;-78
2021/06/30 07:14:47;;;;;;;0.90;0.90;;;20.10;93.10;;;;;;5068912;28;20191;-78
2021/06/30 07:17:13;;;;;;;0.97;0.80;;;20.70;86.20;;;;;;5069474;28;20453;-77
2021/06/30 07:19:38;;;;;;;0.80;0.80;;;21.40;80.30;;;;;;5068533;28;20192;-77
2021/06/30 07:22:04;;;;;;;1.07;0.83;;;21.40;74.90;;;;;;5068433;28;20188;-77
2021/06/30 07:24:29;;;;;;;0.90;0.90;;;21.40;72.20;;;;;;5068727;28;20182;-76
2021/06/30 07:26:55;;;;;;;0.93;0.93;;;21.50;72.40;;;;;;5068535;28;20196;-77
2021/06/30 07:29:21;;;;;;;0.80;0.80;;;21.80;74.20;;;;;;5068322;28;20280;-77
2021/06/30 07:31:47;;;;;;;1.00;1.00;;;21.80;73.20;;;;;;5068422;28;20521;-77
2021/06/30 07:34:12;;;;;;;1.07;1.07;;;22.00;73.80;;;;;;5068852;28;20601;-77
2021/06/30 07:36:38;;;;;;;0.83;0.83;;;22.20;70.20;;;;;;5071390;28;20502;-78
2021/06/30 07:39:04;;;;;;;1.00;1.00;;;22.20;67.80;;;;;;5072538;28;20323;-76
2021/06/30 07:41:30;;;;;;;0.73;0.73;;;22.10;71.30;;;;;;5070641;28;20582;-79
2021/06/30 07:43:56;;;;;;;1.00;0.90;;;21.80;65.90;;;;;;5072039;28;20425;-78
2021/06/30 07:46:21;;;;;;;0.80;0.80;;;21.60;66.90;;;;;;5072058;28;20183;-77
2021/06/30 07:48:48;;;;;;;0.67;0.67;;;21.10;68.60;;;;;;5071728;28;20550;-78
2021/06/30 07:51:13;;;;;;;0.90;0.90;;;21.10;70.90;;;;;;5072200;28;20197;-77
2021/06/30 07:53:40;;;;;;;0.90;0.90;;;21.20;73.70;;;;;;5071701;28;21056;-76
2021/06/30 07:56:06;;;;;;;0.60;0.60;;;21.20;71.80;;;;;;5052383;28;20194;-74
2021/06/30 07:58:31;;;;;;;0.60;0.60;;;20.80;74.20;;;;;;5061288;28;20488;-76
2021/06/30 08:00:56;;;;;;;1.53;0.70;;;20.40;74.70;;;;;;5071388;28;20224;-75
2021/06/30 08:03:22;;;;;;;0.77;0.77;;;19.90;76.80;;;;;;5071711;28;20216;-76
2021/06/30 08:05:48;;;;;;;1.10;0.80;;;19.30;82.50;;;;;;5071535;28;20193;-75
2021/06/30 08:08:13;;;;;;;0.70;0.70;;;19.20;86.00;;;;;;5070958;28;20275;-76
2021/06/30 08:10:38;;;;;;;0.70;0.70;;;18.80;91.10;;;;;;5071585;28;20303;-76
2021/06/30 08:13:04;;;;;;;0.90;0.90;;;18.70;92.20;;;;;;5071408;28;20186;-77
2021/06/30 08:15:30;;;;;;;0.80;0.80;;;18.60;96.10;;;;;;5071760;28;20187;-76
2021/06/30 08:17:55;;;;;;;0.70;0.70;;;19.20;95.80;;;;;;5071905;28;20228;-76
2021/06/30 08:20:21;;;;;;;0.90;0.90;;;19.90;96.90;;;;;;5070997;28;20220;-76
2021/06/30 08:22:46;;;;;;;0.80;0.80;;;20.50;94.30;;;;;;5071274;28;20265;-75
2021/06/30 08:25:12;;;;;;;0.63;0.63;;;21.30;92.20;;;;;;5071562;28;20189;-77
2021/06/30 08:27:38;;;;;;;0.83;0.80;;;22.10;84.60;;;;;;5071390;28;20675;-76
2021/06/30 08:30:06;;;;;;;0.80;0.70;;;23.00;76.40;;;;;;5071043;28;20570;-75
2021/06/30 08:32:32;;;;;;;0.73;0.73;;;23.50;73.30;;;;;;5071172;28;20200;-76
2021/06/30 08:34:57;;;;;;;1.10;1.10;;;24.60;62.70;;;;;;5071334;28;20419;-76
2021/06/30 08:37:25;;;;;;;1.47;1.47;;;25.60;61.30;;;;;;5071074;28;20200;-75
2021/06/30 08:39:51;;;;;;;1.13;1.13;;;26.50;55.20;;;;;;5070811;28;20240;-76
2021/06/30 08:42:17;;;;;;;0.80;0.70;;;26.40;57.40;;;;;;5080865;28;20435;-76
2021/06/30 08:44:43;;;;;;;1.23;1.13;;;25.90;56.60;;;;;;5075767;28;20219;-75
2021/06/30 08:47:09;;;;;;;0.90;0.90;;;25.70;62.10;;;;;;5059912;28;20987;-74
2021/06/30 08:49:40;;;;;;;0.93;0.93;;;25.70;59.30;;;;;;5069390;28;20425;-75
2021/06/30 08:52:06;;;;;;;1.07;1.00;;;25.50;56.40;;;;;;5071091;28;20422;-74
2021/06/30 08:54:33;;;;;;;0.73;0.73;;;25.50;57.20;;;;;;5078141;28;20460;-75
2021/06/30 08:56:59;;;;;;;1.00;1.00;;;24.80;53.70;;;;;;5071956;28;20503;-75
2021/06/30 08:59:26;;;;;;;1.00;1.00;;;24.40;56.40;;;;;;5070266;28;20426;-75
2021/06/30 09:01:52;;;;;;;2.33;1.03;;;23.70;57.80;;;;;;5074542;28;20464;-74
2021/06/30 09:04:17;;;;;;;0.83;0.83;;;22.90;57.00;;;;;;5082817;28;20809;-75
2021/06/30 09:06:43;;;;;;;0.97;0.97;;;22.00;59.40;;;;;;5076062;28;20542;-75
2021/06/30 09:09:12;;;;;;;1.00;1.00;;;21.40;61.80;;;;;;5072373;28;20193;-75
2021/06/30 09:11:37;;;;;;;1.07;1.07;;;20.70;64.30;;;;;;5073186;28;20900;-75
2021/06/30 09:14:21;;;;;;;1.23;1.23;;;20.00;66.30;;;;;;5085359;28;20590;-74
2021/06/30 09:17:00;;;;;;;1.20;1.20;;;19.90;70.50;;;;;;5070608;28;20207;-75
2021/06/30 09:20:06;;;;;;;1.40;1.30;;;20.00;74.70;;;;;;5069588;28;20435;-75
2021/06/30 09:22:40;;;;;;;0.90;0.90;;;19.90;78.20;;;;;;5081242;28;20439;-75
2021/06/30 09:25:06;;;;;;;1.20;1.20;;;20.70;77.30;;;;;;5069585;28;21039;-75
2021/06/30 09:27:40;;;;;;;1.20;1.10;;;21.70;81.80;;;;;;5068889;28;20580;-75
2021/06/30 09:30:09;;;;;;;1.43;1.33;;;23.70;77.60;;;;;;5069291;28;20814;-76
2021/06/30 09:32:34;;;;;;;1.33;1.33;;;24.50;72.20;;;;;;5068073;28;20421;-75
2021/06/30 09:35:27;;;;;;;0.80;0.80;;;25.00;57.30;;;;;;5070179;28;20413;-75
2021/06/30 09:37:53;;;;;;;0.97;0.97;;;25.30;57.70;;;;;;5069706;28;20208;-75
2021/06/30 09:40:19;;;;;;;1.10;1.10;;;25.20;57.70;;;;;;5068813;28;20478;-75
2021/06/30 09:42:47;;;;;;;0.90;0.90;;;24.40;56.90;;;;;;5069223;28;20430;-74
2021/06/30 09:45:19;;;;;;;1.10;1.10;;;23.80;54.10;;;;;;5069794;28;20452;-74
2021/06/30 09:47:50;;;;;;;0.90;0.80;;;22.80;57.00;;;;;;5069937;28;20420;-74
2021/06/30 09:50:17;;;;;;;0.90;0.90;;;21.90;60.80;;;;;;5070030;28;20465;-75
2021/06/30 09:52:45;;;;;;;0.90;0.90;;;21.30;64.50;;;;;;5068675;28;20428;-75
2021/06/30 09:55:25;;;;;;;0.97;0.97;;;20.70;71.80;;;;;;5068616;28;20542;-75
2021/06/30 09:57:50;;;;;;;0.70;0.70;;;20.40;73.60;;;;;;5069265;28;20499;-75
2021/06/30 10:00:18;;;;;;;0.77;0.77;;;21.10;76.40;;;;;;5069336;28;20558;-76
2021/06/30 10:02:48;;;;;;;0.97;0.97;;;22.40;72.80;;;;;;5068877;28;20194;-78
2021/06/30 10:05:13;;;;;;;1.50;0.90;;;23.80;67.90;;;;;;5070078;28;20424;-77
2021/06/30 10:07:39;;;;;;;1.07;1.07;;;25.50;67.30;;;;;;5069220;28;20985;-79
2021/06/30 10:10:07;;;;;;;0.87;0.87;;;27.40;61.90;;;;;;5068300;28;20243;-78
2021/06/30 10:12:34;;;;;;;1.07;0.93;;;29.10;52.50;;;;;;5067909;28;20557;-75
2021/06/30 10:15:02;;;;;;;0.70;0.70;;;30.80;48.90;;;;;;5068772;28;20427;-76
2021/06/30 10:17:28;;;;;;;0.80;0.80;;;32.00;46.80;;;;;;5069522;28;20554;-76
2021/06/30 10:19:55;;;;;;;0.83;0.83;;;32.70;43.00;;;;;;5068446;28;20468;-77
2021/06/30 10:22:26;;;;;;;0.70;0.70;;;32.90;47.00;;;;;;5068300;28;20420;-78
2021/06/30 10:24:52;;;;;;;0.80;0.80;;;33.10;43.10;;;;;;5068556;28;20428;-77
2021/06/30 10:27:18;;;;;;;0.73;0.73;;;33.10;42.20;;;;;;5069082;28;20416;-77
2021/06/30 10:29:52;;;;;;;2.03;0.80;;;32.50;37.70;;;;;;5068744;28;20428;-76
2021/06/30 10:32:18;;;;;;;1.30;0.90;;;32.40;38.70;;;;;;5069010;28;20922;-77
2021/06/30 10:34:57;;;;;;;0.80;0.80;;;32.80;40.00;;;;;;5067958;28;20792;-77
2021/06/30 10:37:36;;;;;;;2.33;0.90;;;32.90;39.70;;;;;;5069125;28;20424;-77
2021/06/30 10:40:09;;;;;;;0.60;0.60;;;33.10;42.50;;;;;;5068735;28;20832;-77
2021/06/30 10:42:38;;;;;;;0.80;0.80;;;33.40;37.50;;;;;;5068399;28;20439;-78
2021/06/30 10:45:13;;;;;;;0.80;0.80;;;32.60;37.60;;;;;;5067548;28;20431;-78
2021/06/30 10:47:50;;;;;;;1.10;1.10;;;30.90;36.00;;;;;;5068617;28;20421;-77
2021/06/30 10:50:19;;;;;;;1.00;1.00;;;29.70;41.00;;;;;;5066239;28;20470;-78
2021/06/30 10:52:46;;;;;;;0.73;0.73;;;29.50;42.80;;;;;;5064786;28;20858;-78
2021/06/30 10:55:31;;;;;;;0.70;0.70;;;29.50;41.40;;;;;;5075091;28;20494;-77
2021/06/30 10:58:12;;;;;;;0.90;0.90;;;29.10;42.50;;;;;;5069336;28;20433;-75
2021/06/30 11:00:42;;;;;;;1.10;1.10;;;28.20;41.40;;;;;;5049022;28;20595;-75
2021/06/30 11:03:27;;;;;;;0.90;0.90;;;27.20;42.40;;;;;;5068127;28;20423;-77
2021/06/30 11:06:20;;;;;;;1.00;1.00;;;26.20;44.90;;;;;;5049072;28;20419;-77
2021/06/30 11:08:53;;;;;;;0.93;0.93;;;24.90;48.50;;;;;;5059381;28;20573;-74
2021/06/30 11:11:40;;;;;;;1.20;1.20;;;23.40;51.80;;;;;;5085355;28;20725;-76
2021/06/30 11:14:10;;;;;;;1.30;1.30;;;22.50;56.00;;;;;;5062037;28;20539;-76
2021/06/30 11:16:48;;;;;;;1.20;1.20;;;21.60;63.70;;;;;;5072827;28;20444;-76
2021/06/30 11:19:17;;;;;;;1.00;1.00;;;22.60;72.60;;;;;;5077906;28;20635;-77
2021/06/30 11:21:52;;;;;;;1.20;1.20;;;23.80;74.70;;;;;;5074079;28;20473;-75
2021/06/30 11:24:33;;;;;;;1.10;1.10;;;25.90;78.40;;;;;;5075094;28;20516;-77
2021/06/30 11:26:59;;;;;;;1.20;1.00;;;28.40;68.00;;;;;;5090549;28;20441;-75
2021/06/30 11:30:03;;;;;;;0.80;0.80;;;30.60;52.50;;;;;;5081285;28;20485;-76
2021/06/30 11:32:49;;;;;;;1.37;0.90;;;30.60;46.40;;;;;;5058694;28;20448;-76
2021/06/30 11:35:20;;;;;;;1.20;1.20;;;30.40;44.80;;;;;;5084597;28;20425;-79
2021/06/30 11:37:53;;;;;;;1.47;1.10;;;30.50;42.40;;;;;;5063564;28;20837;-77
2021/06/30 11:42:57;;;;;;;0.90;0.90;;;28.40;44.50;;;;;;5077421;28;20449;-84
2021/06/30 11:45:27;;;;;;;0.97;0.97;;;27.10;45.60;;;;;;5071510;28;20427;-80
2021/06/30 11:47:55;;;;;;;0.80;0.80;;;25.10;47.70;;;;;;5076223;28;20443;-77
2021/06/30 11:50:23;;;;;;;1.23;1.13;;;23.70;51.30;;;;;;5071014;28;20972;-76
2021/06/30 11:52:49;;;;;;;1.00;1.00;;;21.90;56.50;;;;;;5071970;28;20433;-77
2021/06/30 11:55:16;;;;;;;0.90;0.90;;;21.20;61.20;;;;;;5082450;28;20435;-77
2021/06/30 11:58:01;;;;;;;0.90;0.90;;;20.70;66.10;;;;;;5072565;28;20446;-77
2021/06/30 12:00:30;;;;;;;0.80;0.80;;;20.10;68.10;;;;;;5070951;28;20481;-78
2021/06/30 12:03:00;;;;;;;1.07;1.07;;;19.80;73.80;;;;;;5070538;28;20446;-77
2021/06/30 12:05:28;;;;;;;1.23;1.00;;;19.90;80.30;;;;;;5077132;28;20430;-76
2021/06/30 12:07:54;;;;;;;1.10;1.10;;;19.90;85.10;;;;;;5071634;28;20992;-77
2021/06/30 12:10:24;;;;;;;1.37;1.10;;;20.50;90.70;;;;;;5080377;28;20866;-75
2021/06/30 12:12:50;;;;;;;0.90;0.90;;;21.60;92.80;;;;;;5079162;28;20577;-76
2021/06/30 12:15:17;;;;;;;1.00;1.00;;;22.50;92.30;;;;;;5079729;28;20826;-77
2021/06/30 12:17:48;;;;;;;1.10;1.10;;;24.70;90.80;;;;;;5078639;28;20439;-76
2021/06/30 12:20:16;;;;;;;1.00;1.00;;;27.00;90.70;;;;;;5078839;28;20734;-76
2021/06/30 12:22:43;;;;;;;1.10;1.00;;;28.00;76.90;;;;;;5073833;28;20525;-77
2021/06/30 12:25:12;;;;;;;1.33;1.23;;;28.00;62.60;;;;;;5070161;28;20957;-76
2021/06/30 12:27:50;;;;;;;1.23;1.23;;;27.40;62.00;;;;;;5063231;28;20537;-78
2021/06/30 12:30:19;;;;;;;1.87;1.53;;;26.60;61.30;;;;;;5069281;28;20534;-76
2021/06/30 12:32:50;;;;;;;1.10;1.10;;;25.90;63.80;;;;;;5077812;28;20991;-76
2021/06/30 12:35:21;;;;;;;1.37;1.37;;;25.10;64.90;;;;;;5074685;28;20510;-76
2021/06/30 12:38:14;;;;;;;1.67;1.57;;;24.90;62.70;;;;;;5077195;28;20797;-76
2021/06/30 12:40:40;;;;;;;1.43;1.43;;;23.50;64.10;;;;;;5068061;28;20482;-76
2021/06/30 12:43:17;;;;;;;1.50;1.40;;;23.30;66.70;;;;;;5071226;28;20520;-76
2021/06/30 12:45:47;;;;;;;1.20;1.20;;;22.70;70.90;;;;;;5078160;28;20210;-75
2021/06/30 12:48:24;;;;;;;1.20;1.20;;;22.40;75.20;;;;;;5074747;28;20527;-77
2021/06/30 12:50:52;;;;;;;1.30;1.30;;;22.60;78.20;;;;;;5086228;28;20424;-77
2021/06/30 12:53:28;;;;;;;1.47;1.37;;;23.10;88.10;;;;;;5075117;28;20435;-77